Irvington, New Jersey
Current Conditions -  °F | °C
As of 12:51 PM on Thursday 30 Oct 2014 (Local Time) from KEWR Reporting Station
Scattered Clouds Scattered Clouds  
Wind Chill: 14°   Ceiling: Unl
Heat Index: 14°   Visibility: 10mi
Dew Point:   Wind: 10mph
Humidity: 47%   Direction: 330°NNW
Pressure: 30"   Gusts: 22mph
Location:  40.73°N, 74.23°W
Report Text: KEWR 301651Z 33009G19KT 10SM SCT040 SCT065 14/03 A3000 RMK AO2 SLP157 T01440033
Loading
Personal Weather Stations






























Interactive Weather Map
Tropical Storm Tracking
New forecast layout! Learn more

10-Day Weather Forecast

Advertisements
Track Severe Weather on mobile